Time;durP1;ratioP1;P1;durP2;ratioP2;P2;SDS_P1;SDS_P2;PMS_P1;PMS_P2;Temp;Humidity;BMP_temperature;BMP_pressure;BME280_temperature;BME280_humidity;BME280_pressure;Samples;Min_cycle;Max_cycle;Signal;HPM_P1;HPM_P2
2021/03/16 00:00:35;;;;;;;4.83;4.37;;;;;;;;;;6314276;22;20978;-93
2021/03/16 00:03:01;;;;;;;5.90;5.03;;;;;;;;;;6316234;22;20407;-92
2021/03/16 00:05:27;;;;;;;5.20;4.07;;;;;;;;;;6317042;22;20408;-93
2021/03/16 00:07:53;;;;;;;7.00;4.50;;;;;;;;;;6316416;22;20532;-93
2021/03/16 00:10:19;;;;;;;4.77;4.23;;;;;;;;;;6319310;22;20410;-94
2021/03/16 00:12:45;;;;;;;4.50;4.07;;;;;;;;;;6317655;22;20455;-92
2021/03/16 00:15:12;;;;;;;5.73;4.07;;;;;;;;;;6319278;22;20742;-93
2021/03/16 00:17:38;;;;;;;5.50;4.50;;;;;;;;;;6317428;22;20414;-92
2021/03/16 00:20:05;;;;;;;5.67;4.50;;;;;;;;;;6318558;22;20404;-93
2021/03/16 00:22:31;;;;;;;9.13;5.00;;;;;;;;;;6316847;22;20412;-92
2021/03/16 00:24:57;;;;;;;7.63;5.30;;;;;;;;;;6316592;22;20404;-93
2021/03/16 00:27:24;;;;;;;5.93;5.27;;;;;;;;;;6315625;22;20525;-92
2021/03/16 00:29:50;;;;;;;7.67;5.47;;;;;;;;;;6317719;22;20410;-93
2021/03/16 00:32:16;;;;;;;6.40;4.93;;;;;;;;;;6316526;22;20455;-92
2021/03/16 00:34:42;;;;;;;6.13;5.30;;;;;;;;;;6318926;22;20475;-91
2021/03/16 00:37:08;;;;;;;7.17;5.60;;;;;;;;;;6316760;22;20423;-92
2021/03/16 00:39:34;;;;;;;7.43;6.30;;;;;;;;;;6317109;22;20415;-92
2021/03/16 00:42:00;;;;;;;7.77;5.67;;;;;;;;;;6317715;22;20415;-92
2021/03/16 00:44:26;;;;;;;8.37;5.87;;;;;;;;;;6317718;22;20491;-92
2021/03/16 00:46:52;;;;;;;7.13;6.37;;;;;;;;;;6319315;22;20406;-92
2021/03/16 00:49:18;;;;;;;8.07;5.30;;;;;;;;;;6315466;22;20823;-92
2021/03/16 00:51:44;;;;;;;7.63;5.20;;;;;;;;;;6316984;22;20482;-92
2021/03/16 00:54:10;;;;;;;7.17;5.40;;;;;;;;;;6317454;22;20428;-92
2021/03/16 00:56:37;;;;;;;7.33;5.90;;;;;;;;;;6318829;22;20415;-92
2021/03/16 00:59:03;;;;;;;7.80;5.80;;;;;;;;;;6317058;22;20472;-93
2021/03/16 01:01:30;;;;;;;8.07;6.00;;;;;;;;;;6318001;22;20412;-92
2021/03/16 01:03:56;;;;;;;5.77;5.00;;;;;;;;;;6317272;22;20408;-92
2021/03/16 01:06:22;;;;;;;6.23;5.20;;;;;;;;;;6318910;22;20905;-92
2021/03/16 01:08:48;;;;;;;7.10;5.20;;;;;;;;;;6316883;22;20514;-92
2021/03/16 01:11:14;;;;;;;5.57;4.63;;;;;;;;;;6318996;22;20447;-93
2021/03/16 01:13:40;;;;;;;8.33;4.40;;;;;;;;;;6316530;22;20838;-92
2021/03/16 01:16:06;;;;;;;4.77;4.23;;;;;;;;;;6317587;22;20447;-92
2021/03/16 01:18:33;;;;;;;8.50;4.43;;;;;;;;;;6317185;22;20461;-92
2021/03/16 01:20:59;;;;;;;5.23;4.47;;;;;;;;;;6318237;22;20430;-93
2021/03/16 01:23:25;;;;;;;5.43;4.83;;;;;;;;;;6317564;22;20411;-93
2021/03/16 01:25:51;;;;;;;5.37;3.80;;;;;;;;;;6315649;22;20448;-93
2021/03/16 01:28:17;;;;;;;5.73;4.57;;;;;;;;;;6317700;22;20415;-93
2021/03/16 01:30:43;;;;;;;4.87;4.30;;;;;;;;;;6316169;22;20407;-93
2021/03/16 01:33:09;;;;;;;4.37;3.97;;;;;;;;;;6318721;22;20407;-93
2021/03/16 01:35:36;;;;;;;6.10;4.67;;;;;;;;;;6316574;22;20491;-93
2021/03/16 01:38:02;;;;;;;5.17;4.63;;;;;;;;;;6317825;22;20416;-93
2021/03/16 01:40:29;;;;;;;4.83;4.43;;;;;;;;;;6316129;22;20412;-93
2021/03/16 01:43:06;;;;;;;4.53;3.97;;;;;;;;;;6317844;22;20427;-93
2021/03/16 01:45:32;;;;;;;5.50;4.50;;;;;;;;;;6317520;22;20403;-94
2021/03/16 01:47:58;;;;;;;5.33;4.47;;;;;;;;;;6318869;22;20405;-93
2021/03/16 01:50:24;;;;;;;4.83;4.37;;;;;;;;;;6322433;22;20434;-94
2021/03/16 01:52:53;;;;;;;6.50;5.33;;;;;;;;;;6317855;22;20483;-94
2021/03/16 01:55:20;;;;;;;9.03;5.40;;;;;;;;;;6317429;22;20469;-94
2021/03/16 01:57:47;;;;;;;8.27;6.43;;;;;;;;;;6318276;22;20465;-95
2021/03/16 02:00:13;;;;;;;6.37;5.77;;;;;;;;;;6318380;22;20406;-94
2021/03/16 02:02:39;;;;;;;4.90;4.30;;;;;;;;;;6318196;22;20404;-94
2021/03/16 02:05:06;;;;;;;4.53;4.13;;;;;;;;;;6317208;22;20541;-95
2021/03/16 02:07:34;;;;;;;4.63;4.23;;;;;;;;;;6316209;22;20461;-94
2021/03/16 02:10:05;;;;;;;4.37;3.70;;;;;;;;;;6318056;22;20404;-94
2021/03/16 02:12:33;;;;;;;5.10;4.30;;;;;;;;;;6317116;22;20478;-93
2021/03/16 02:15:04;;;;;;;4.30;3.90;;;;;;;;;;6290929;22;20423;-94
2021/03/16 02:17:32;;;;;;;5.70;4.47;;;;;;;;;;6316038;22;20423;-95
2021/03/16 02:20:07;;;;;;;5.40;4.10;;;;;;;;;;6318424;22;20408;-94
2021/03/16 02:22:34;;;;;;;4.70;4.30;;;;;;;;;;6316063;22;20892;-94
2021/03/16 02:25:18;;;;;;;6.33;4.50;;;;;;;;;;6318521;22;20404;-93
2021/03/16 02:27:56;;;;;;;4.40;4.00;;;;;;;;;;6295812;22;20421;-94
2021/03/16 02:30:25;;;;;;;4.40;4.00;;;;;;;;;;6316771;22;20433;-93
2021/03/16 02:32:51;;;;;;;4.70;3.97;;;;;;;;;;6315972;22;20465;-95
2021/03/16 02:35:18;;;;;;;4.17;3.73;;;;;;;;;;6317803;22;20445;-94
2021/03/16 02:37:45;;;;;;;4.33;3.03;;;;;;;;;;6316083;22;20415;-93
2021/03/16 02:40:13;;;;;;;4.30;3.50;;;;;;;;;;6317562;22;20404;-93
2021/03/16 02:42:39;;;;;;;4.72;3.72;;;;;;;;;;6316429;22;20419;-94
2021/03/16 02:45:09;;;;;;;7.03;3.13;;;;;;;;;;6320348;22;20238;-94
2021/03/16 02:47:37;;;;;;;3.73;3.43;;;;;;;;;;6315948;22;20413;-95
2021/03/16 02:50:04;;;;;;;3.10;2.80;;;;;;;;;;6316056;22;20409;-93
2021/03/16 02:52:30;;;;;;;4.67;3.33;;;;;;;;;;6314935;22;20459;-94
2021/03/16 02:54:57;;;;;;;3.67;3.30;;;;;;;;;;6317370;22;20414;-94
2021/03/16 02:57:23;;;;;;;3.90;3.53;;;;;;;;;;6316374;22;20417;-96
2021/03/16 02:59:50;;;;;;;3.97;3.67;;;;;;;;;;6316254;22;20770;-94
2021/03/16 03:02:17;;;;;;;3.65;3.35;;;;;;;;;;6316163;22;20182;-95
2021/03/16 03:04:45;;;;;;;4.20;3.25;;;;;;;;;;6314631;22;20208;-95
2021/03/16 03:07:12;;;;;;;3.30;3.00;;;;;;;;;;6315741;22;20197;-95
2021/03/16 03:09:38;;;;;;;3.50;3.20;;;;;;;;;;6313558;22;20404;-93
2021/03/16 03:12:05;;;;;;;4.22;3.35;;;;;;;;;;6314866;22;20478;-96
2021/03/16 03:14:32;;;;;;;4.17;3.73;;;;;;;;;;6315248;22;20180;-94
2021/03/16 03:16:58;;;;;;;4.80;3.10;;;;;;;;;;6316906;22;20436;-94
2021/03/16 03:19:24;;;;;;;3.30;3.00;;;;;;;;;;6314080;22;20183;-94
2021/03/16 03:21:54;;;;;;;3.13;2.80;;;;;;;;;;6316147;22;20188;-95
2021/03/16 03:24:23;;;;;;;3.95;3.28;;;;;;;;;;6317216;22;20182;-95
2021/03/16 03:26:55;;;;;;;3.42;3.00;;;;;;;;;;6317769;22;20202;-94
2021/03/16 03:29:22;;;;;;;3.50;2.80;;;;;;;;;;6314748;22;20720;-93
2021/03/16 03:31:49;;;;;;;3.20;2.95;;;;;;;;;;6315021;22;20452;-95
2021/03/16 03:34:17;;;;;;;4.20;3.80;;;;;;;;;;6316220;22;20178;-96
2021/03/16 03:36:43;;;;;;;6.28;3.45;;;;;;;;;;6317414;22;20180;-94
2021/03/16 03:39:11;;;;;;;3.60;3.20;;;;;;;;;;6314729;22;20179;-95
2021/03/16 03:41:38;;;;;;;4.93;3.17;;;;;;;;;;6316403;22;20430;-95
2021/03/16 03:44:07;;;;;;;4.32;3.08;;;;;;;;;;6319052;22;20178;-95
2021/03/16 03:46:34;;;;;;;5.10;3.40;;;;;;;;;;6318537;22;20191;-95
2021/03/16 03:49:02;;;;;;;3.43;3.13;;;;;;;;;;6318806;22;20421;-96
2021/03/16 03:51:29;;;;;;;4.70;3.83;;;;;;;;;;6316955;22;20442;-96
2021/03/16 03:53:55;;;;;;;5.05;3.20;;;;;;;;;;6318497;22;20411;-96
2021/03/16 03:56:23;;;;;;;4.70;3.43;;;;;;;;;;6318724;22;20176;-96
2021/03/16 03:58:50;;;;;;;4.30;3.07;;;;;;;;;;6323519;22;20415;-95
2021/03/16 04:01:16;;;;;;;5.35;3.17;;;;;;;;;;6318537;22;20526;-96
2021/03/16 04:03:42;;;;;;;3.85;2.90;;;;;;;;;;6321522;22;20886;-96
2021/03/16 04:06:08;;;;;;;3.28;2.97;;;;;;;;;;6324144;22;20211;-95
2021/03/16 04:08:35;;;;;;;4.00;3.20;;;;;;;;;;6318962;22;20207;-96
2021/03/16 04:11:02;;;;;;;3.87;3.27;;;;;;;;;;6316302;22;20439;-95
2021/03/16 04:13:29;;;;;;;5.25;3.05;;;;;;;;;;6318943;22;20429;-95
2021/03/16 04:15:55;;;;;;;3.40;3.10;;;;;;;;;;6317754;22;20235;-95
2021/03/16 04:18:21;;;;;;;4.97;3.58;;;;;;;;;;6320245;22;20178;-95
2021/03/16 04:20:48;;;;;;;4.15;3.15;;;;;;;;;;6318994;22;20181;-94
2021/03/16 04:23:14;;;;;;;3.97;3.60;;;;;;;;;;6318533;22;20619;-94
2021/03/16 04:25:40;;;;;;;4.90;3.93;;;;;;;;;;6324208;22;20182;-94
2021/03/16 04:28:06;;;;;;;4.13;3.73;;;;;;;;;;6317019;22;20989;-95
2021/03/16 04:30:33;;;;;;;4.50;4.10;;;;;;;;;;6319913;22;20416;-93
2021/03/16 04:32:59;;;;;;;7.25;4.57;;;;;;;;;;6317270;22;20482;-92
2021/03/16 04:35:25;;;;;;;5.93;4.83;;;;;;;;;;6318004;22;20182;-94
2021/03/16 04:37:51;;;;;;;4.93;3.53;;;;;;;;;;6317088;22;20430;-94
2021/03/16 04:40:17;;;;;;;7.63;4.82;;;;;;;;;;6319194;22;20403;-93
2021/03/16 04:42:43;;;;;;;7.88;5.00;;;;;;;;;;6318364;22;20201;-95
2021/03/16 04:45:10;;;;;;;5.93;4.67;;;;;;;;;;6318304;22;20179;-93
2021/03/16 04:47:36;;;;;;;7.13;6.00;;;;;;;;;;6316726;22;20413;-93
2021/03/16 04:50:03;;;;;;;7.55;5.63;;;;;;;;;;6316754;22;20180;-93
2021/03/16 04:52:29;;;;;;;7.43;5.72;;;;;;;;;;6314728;22;20308;-93
2021/03/16 04:54:55;;;;;;;10.43;5.70;;;;;;;;;;6318109;22;20640;-94
2021/03/16 04:57:21;;;;;;;8.20;6.13;;;;;;;;;;6316305;22;20418;-93
2021/03/16 04:59:47;;;;;;;6.80;5.37;;;;;;;;;;6318548;22;20404;-93
2021/03/16 05:02:13;;;;;;;7.30;5.37;;;;;;;;;;6317654;22;20486;-93
2021/03/16 05:04:40;;;;;;;8.32;5.88;;;;;;;;;;6318788;22;20437;-95
2021/03/16 05:07:06;;;;;;;6.40;5.07;;;;;;;;;;6319094;22;20215;-94
2021/03/16 05:09:32;;;;;;;8.63;5.33;;;;;;;;;;6317424;22;20410;-94
2021/03/16 05:11:58;;;;;;;6.60;5.40;;;;;;;;;;6318560;22;20506;-94
2021/03/16 05:14:24;;;;;;;7.97;5.60;;;;;;;;;;6317693;22;20406;-95
2021/03/16 05:16:50;;;;;;;6.07;5.20;;;;;;;;;;6318560;22;20753;-94
2021/03/16 05:19:16;;;;;;;7.70;5.47;;;;;;;;;;6317520;22;20400;-95
2021/03/16 05:21:43;;;;;;;7.13;5.67;;;;;;;;;;6318616;22;20418;-96
2021/03/16 05:24:10;;;;;;;9.70;6.50;;;;;;;;;;6316786;22;20948;-93
2021/03/16 05:26:36;;;;;;;7.90;6.30;;;;;;;;;;6291158;22;20410;-93
2021/03/16 05:29:02;;;;;;;6.43;5.83;;;;;;;;;;6317304;22;20410;-94
2021/03/16 05:31:28;;;;;;;6.60;5.90;;;;;;;;;;6319015;22;20439;-94
2021/03/16 05:33:54;;;;;;;7.23;6.40;;;;;;;;;;6317377;22;20738;-96
2021/03/16 05:36:20;;;;;;;9.10;5.97;;;;;;;;;;6318202;22;20925;-93
2021/03/16 05:38:47;;;;;;;8.93;6.30;;;;;;;;;;6317132;22;20185;-94
2021/03/16 05:41:13;;;;;;;8.73;6.78;;;;;;;;;;6318314;22;20198;-94
2021/03/16 05:43:40;;;;;;;7.80;6.50;;;;;;;;;;6319378;22;20176;-94
2021/03/16 05:46:06;;;;;;;7.85;5.65;;;;;;;;;;6317171;22;20190;-94
2021/03/16 05:48:36;;;;;;;12.80;6.10;;;;;;;;;;6318502;22;20183;-93
2021/03/16 05:51:03;;;;;;;7.43;6.55;;;;;;;;;;6316285;22;20413;-93
2021/03/16 05:53:29;;;;;;;9.50;7.20;;;;;;;;;;6318896;22;20187;-93
2021/03/16 05:55:56;;;;;;;10.93;9.80;;;;;;;;;;6317315;22;20411;-94
2021/03/16 05:58:23;;;;;;;7.93;5.78;;;;;;;;;;6318070;22;20411;-93
2021/03/16 06:00:49;;;;;;;6.85;6.15;;;;;;;;;;6318200;22;20180;-94
2021/03/16 06:03:15;;;;;;;8.20;6.03;;;;;;;;;;6320329;22;20192;-93
2021/03/16 06:05:41;;;;;;;8.70;5.30;;;;;;;;;;6319218;22;20414;-94
2021/03/16 06:08:07;;;;;;;6.73;5.03;;;;;;;;;;6321197;22;20442;-95
2021/03/16 06:10:34;;;;;;;7.30;6.50;;;;;;;;;;6319852;22;20418;-94
2021/03/16 06:13:15;;;;;;;7.03;5.73;;;;;;;;;;6320966;22;20453;-94
2021/03/16 06:15:42;;;;;;;6.70;5.37;;;;;;;;;;6318529;22;20849;-94
2021/03/16 06:18:09;;;;;;;6.33;5.07;;;;;;;;;;6319812;22;20459;-93
2021/03/16 06:20:36;;;;;;;6.30;4.97;;;;;;;;;;6320468;22;20412;-94
2021/03/16 06:23:05;;;;;;;7.60;5.13;;;;;;;;;;6321813;22;20437;-91
2021/03/16 06:25:32;;;;;;;6.87;5.53;;;;;;;;;;6319676;22;20406;-93
2021/03/16 06:28:01;;;;;;;6.90;4.87;;;;;;;;;;6321044;22;20415;-93
2021/03/16 06:30:28;;;;;;;7.10;4.67;;;;;;;;;;6323288;22;20408;-94
2021/03/16 06:32:55;;;;;;;4.87;4.20;;;;;;;;;;6321002;22;20440;-93
2021/03/16 06:35:21;;;;;;;6.27;4.50;;;;;;;;;;6321415;22;20407;-95
2021/03/16 06:38:01;;;;;;;7.53;4.80;;;;;;;;;;6318348;22;20424;-94
2021/03/16 06:40:27;;;;;;;5.83;4.93;;;;;;;;;;6318892;22;20407;-94
2021/03/16 06:43:01;;;;;;;8.10;5.27;;;;;;;;;;6316877;22;20769;-94
2021/03/16 06:45:29;;;;;;;6.80;4.63;;;;;;;;;;6318778;22;20399;-92
2021/03/16 06:47:56;;;;;;;6.40;5.47;;;;;;;;;;6317652;22;20481;-92
2021/03/16 06:50:27;;;;;;;7.93;5.90;;;;;;;;;;6317317;22;20408;-93
2021/03/16 06:52:53;;;;;;;9.70;6.30;;;;;;;;;;6314509;22;20446;-93
2021/03/16 06:55:19;;;;;;;11.70;6.97;;;;;;;;;;6317923;22;20411;-93
2021/03/16 06:57:46;;;;;;;7.27;6.17;;;;;;;;;;6316985;22;20924;-93
2021/03/16 07:00:12;;;;;;;8.07;6.23;;;;;;;;;;6319796;22;20410;-94
2021/03/16 07:02:38;;;;;;;9.90;6.93;;;;;;;;;;6316848;22;20412;-92
2021/03/16 07:05:06;;;;;;;8.87;6.60;;;;;;;;;;6316057;22;20488;-94
2021/03/16 07:07:33;;;;;;;9.87;6.67;;;;;;;;;;6314306;22;20435;-94
2021/03/16 07:10:00;;;;;;;7.37;5.90;;;;;;;;;;6317287;22;20430;-93
2021/03/16 07:12:32;;;;;;;8.70;5.73;;;;;;;;;;6316673;22;20455;-93
2021/03/16 07:14:59;;;;;;;7.55;5.65;;;;;;;;;;6314829;22;20411;-93
2021/03/16 07:17:25;;;;;;;9.03;6.87;;;;;;;;;;6317674;22;20607;-94
2021/03/16 07:19:52;;;;;;;7.83;6.93;;;;;;;;;;6319972;22;20423;-93
2021/03/16 07:22:21;;;;;;;8.67;6.77;;;;;;;;;;6319678;22;20412;-94
2021/03/16 07:24:47;;;;;;;6.70;6.00;;;;;;;;;;6318993;22;20439;-94
2021/03/16 07:27:13;;;;;;;9.03;6.33;;;;;;;;;;6321743;22;20457;-96
2021/03/16 07:29:39;;;;;;;10.10;6.20;;;;;;;;;;6316643;22;20468;-95
2021/03/16 07:32:05;;;;;;;8.40;6.60;;;;;;;;;;6317869;22;20479;-95
2021/03/16 07:34:31;;;;;;;8.07;6.57;;;;;;;;;;6317163;22;20418;-95
2021/03/16 07:36:57;;;;;;;7.40;6.27;;;;;;;;;;6318271;22;20408;-93
2021/03/16 07:39:25;;;;;;;6.73;6.07;;;;;;;;;;6319739;22;20446;-93
2021/03/16 07:41:51;;;;;;;13.10;11.00;;;;;;;;;;6320376;22;20414;-93
2021/03/16 07:44:18;;;;;;;7.70;6.20;;;;;;;;;;6316445;22;20464;-94
2021/03/16 07:46:45;;;;;;;9.30;7.10;;;;;;;;;;6317606;22;20422;-92
2021/03/16 07:49:12;;;;;;;5.10;3.60;;;;;;;;;;6319150;22;20415;-94
2021/03/16 07:51:40;;;;;;;4.30;3.90;;;;;;;;;;6320600;22;20750;-92
2021/03/16 07:54:07;;;;;;;5.30;4.90;;;;;;;;;;6316687;22;20414;-93
2021/03/16 07:56:34;;;;;;;5.67;5.03;;;;;;;;;;6317751;22;20442;-93
2021/03/16 07:59:01;;;;;;;3.23;2.93;;;;;;;;;;6315532;22;20414;-95
2021/03/16 08:01:27;;;;;;;2.80;2.60;;;;;;;;;;6319064;22;21200;-93
2021/03/16 08:04:03;;;;;;;4.37;3.83;;;;;;;;;;6320054;22;20414;-93
2021/03/16 08:06:29;;;;;;;6.20;4.20;;;;;;;;;;6318404;22;20410;-93
2021/03/16 08:08:56;;;;;;;4.13;3.70;;;;;;;;;;6321468;22;20461;-94
2021/03/16 08:11:22;;;;;;;5.37;4.87;;;;;;;;;;6318063;22;20407;-94
2021/03/16 08:13:56;;;;;;;6.30;4.70;;;;;;;;;;6322318;22;20442;-93
2021/03/16 08:16:32;;;;;;;6.40;4.80;;;;;;;;;;6324624;22;20430;-95
2021/03/16 08:19:07;;;;;;;6.27;4.30;;;;;;;;;;6326391;22;20445;-95
2021/03/16 08:21:35;;;;;;;2.73;2.53;;;;;;;;;;6320173;22;20429;-93
2021/03/16 08:24:02;;;;;;;7.23;4.80;;;;;;;;;;6321940;22;20421;-95
2021/03/16 08:26:29;;;;;;;5.03;3.93;;;;;;;;;;6324087;22;20409;-95
2021/03/16 08:28:57;;;;;;;3.80;3.50;;;;;;;;;;6321868;22;20444;-95
2021/03/16 08:31:24;;;;;;;5.65;4.80;;;;;;;;;;6320506;22;20407;-96
2021/03/16 08:33:52;;;;;;;4.03;3.10;;;;;;;;;;6321892;22;20217;-95
2021/03/16 08:36:18;;;;;;;4.00;3.60;;;;;;;;;;6319765;22;20412;-95
2021/03/16 08:38:44;;;;;;;4.13;3.33;;;;;;;;;;6321707;22;20422;-95
2021/03/16 08:41:16;;;;;;;3.50;3.20;;;;;;;;;;6325335;22;20390;-96
2021/03/16 08:43:42;;;;;;;4.70;4.30;;;;;;;;;;6326061;22;20176;-93
2021/03/16 08:46:11;;;;;;;6.57;4.80;;;;;;;;;;6325019;22;20414;-95
2021/03/16 08:48:37;;;;;;;4.23;3.93;;;;;;;;;;6329678;22;20418;-95
2021/03/16 08:51:05;;;;;;;7.50;3.70;;;;;;;;;;6300145;22;20408;-96
2021/03/16 08:53:31;;;;;;;7.20;5.33;;;;;;;;;;6323612;22;20509;-93
2021/03/16 08:55:58;;;;;;;3.00;2.80;;;;;;;;;;6318213;22;20419;-95
2021/03/16 08:58:25;;;;;;;4.13;3.83;;;;;;;;;;6317612;22;20413;-93
2021/03/16 09:00:51;;;;;;;4.20;3.80;;;;;;;;;;6320798;22;20482;-92
2021/03/16 09:03:29;;;;;;;5.70;5.20;;;;;;;;;;6322627;22;20402;-96
2021/03/16 09:05:55;;;;;;;4.83;4.27;;;;;;;;;;6325539;22;20479;-96
2021/03/16 09:08:21;;;;;;;4.60;4.20;;;;;;;;;;6325555;22;20431;-96
2021/03/16 09:10:52;;;;;;;4.80;4.40;;;;;;;;;;6328445;22;20414;-96
2021/03/16 09:13:25;;;;;;;5.60;5.10;;;;;;;;;;6323090;22;20488;-94
2021/03/16 09:15:51;;;;;;;9.13;6.70;;;;;;;;;;6324584;22;20474;-96
2021/03/16 09:21:05;;;;;;;5.50;4.90;;;;;;;;;;6322200;22;20408;-96
2021/03/16 09:23:33;;;;;;;4.87;4.40;;;;;;;;;;6324391;22;20471;-93
2021/03/16 09:26:02;;;;;;;4.93;4.43;;;;;;;;;;6324383;22;20469;-95
2021/03/16 09:28:32;;;;;;;5.63;5.13;;;;;;;;;;6324707;22;20399;-91
2021/03/16 09:31:06;;;;;;;4.73;4.30;;;;;;;;;;6323605;22;20209;-96
2021/03/16 09:33:39;;;;;;;5.35;4.68;;;;;;;;;;6325351;22;20481;-96
2021/03/16 09:36:25;;;;;;;7.87;6.17;;;;;;;;;;6326624;22;20167;-95
2021/03/16 09:38:53;;;;;;;7.67;5.63;;;;;;;;;;6323463;22;20482;-94
2021/03/16 09:41:19;;;;;;;6.37;5.77;;;;;;;;;;6323568;22;20614;-95
2021/03/16 09:43:45;;;;;;;13.50;7.30;;;;;;;;;;6318754;22;20412;-94
2021/03/16 09:46:12;;;;;;;6.57;5.20;;;;;;;;;;6321145;22;20418;-95
2021/03/16 09:48:39;;;;;;;7.32;5.95;;;;;;;;;;6322632;22;20213;-95
2021/03/16 09:51:10;;;;;;;11.48;8.30;;;;;;;;;;6322413;22;20175;-94
2021/03/16 09:53:36;;;;;;;5.18;4.68;;;;;;;;;;6322067;22;20206;-94
2021/03/16 09:56:05;;;;;;;9.43;6.93;;;;;;;;;;6322102;22;20206;-93
2021/03/16 09:58:32;;;;;;;6.30;5.70;;;;;;;;;;6320420;22;20184;-94
2021/03/16 10:01:01;;;;;;;7.65;5.30;;;;;;;;;;6324024;22;20183;-96
2021/03/16 10:03:29;;;;;;;8.55;6.88;;;;;;;;;;6324783;22;20177;-96
2021/03/16 10:06:05;;;;;;;8.15;6.55;;;;;;;;;;6320364;22;20180;-95
2021/03/16 10:08:31;;;;;;;7.28;6.32;;;;;;;;;;6325085;22;20180;-93
2021/03/16 10:10:57;;;;;;;8.07;7.27;;;;;;;;;;6316011;22;20233;-94
2021/03/16 10:13:33;;;;;;;8.50;7.10;;;;;;;;;;6318476;22;20447;-93
2021/03/16 10:16:09;;;;;;;9.80;7.80;;;;;;;;;;6317819;22;20230;-94
2021/03/16 10:18:39;;;;;;;7.57;5.85;;;;;;;;;;6319435;22;20175;-96
2021/03/16 10:21:06;;;;;;;8.57;6.90;;;;;;;;;;6318107;22;20299;-94
2021/03/16 10:23:32;;;;;;;6.97;6.07;;;;;;;;;;6319400;22;20192;-95
2021/03/16 10:26:00;;;;;;;6.00;5.27;;;;;;;;;;6320435;22;20410;-94
2021/03/16 10:28:55;;;;;;;5.93;5.33;;;;;;;;;;6320179;22;20395;-95
2021/03/16 10:31:22;;;;;;;6.68;6.07;;;;;;;;;;6292303;22;20418;-94
2021/03/16 10:33:49;;;;;;;7.77;6.93;;;;;;;;;;6317842;22;20204;-95
2021/03/16 10:36:16;;;;;;;8.02;6.70;;;;;;;;;;6316953;22;20844;-92
2021/03/16 10:38:42;;;;;;;8.63;7.00;;;;;;;;;;6321332;22;20178;-95
2021/03/16 10:41:09;;;;;;;7.47;6.70;;;;;;;;;;6323713;22;20475;-95
2021/03/16 10:43:35;;;;;;;7.50;6.70;;;;;;;;;;6323283;22;20408;-93
2021/03/16 10:46:01;;;;;;;6.40;5.80;;;;;;;;;;6320426;22;20472;-93
2021/03/16 10:48:27;;;;;;;7.67;6.87;;;;;;;;;;6320854;22;20421;-93
2021/03/16 10:50:53;;;;;;;7.93;6.63;;;;;;;;;;6317604;22;20408;-95
2021/03/16 10:53:21;;;;;;;8.93;7.23;;;;;;;;;;6321154;22;20466;-90
2021/03/16 10:55:47;;;;;;;6.30;5.33;;;;;;;;;;6319029;22;20414;-93
2021/03/16 10:58:13;;;;;;;8.10;6.17;;;;;;;;;;6321040;22;20455;-94
2021/03/16 11:00:39;;;;;;;8.37;6.40;;;;;;;;;;6316101;22;20438;-95
2021/03/16 11:03:06;;;;;;;10.03;8.00;;;;;;;;;;6316544;22;20745;-95
2021/03/16 11:05:32;;;;;;;5.87;5.27;;;;;;;;;;6317847;22;20403;-93
2021/03/16 11:07:58;;;;;;;7.60;6.07;;;;;;;;;;6317020;22;20406;-95
2021/03/16 11:10:25;;;;;;;9.57;8.07;;;;;;;;;;6317948;22;20415;-93
2021/03/16 11:12:51;;;;;;;9.60;7.72;;;;;;;;;;6315012;22;20461;-95
2021/03/16 11:15:17;;;;;;;8.57;7.47;;;;;;;;;;6316827;22;20204;-92
2021/03/16 11:17:44;;;;;;;7.53;6.73;;;;;;;;;;6318103;22;20400;-95
2021/03/16 11:20:11;;;;;;;6.80;6.10;;;;;;;;;;6319320;22;20413;-95
2021/03/16 11:22:37;;;;;;;6.75;6.10;;;;;;;;;;6316078;22;20410;-93
2021/03/16 11:25:03;;;;;;;7.07;6.37;;;;;;;;;;6317891;22;20255;-95
2021/03/16 11:27:30;;;;;;;10.40;8.40;;;;;;;;;;6314974;22;20418;-92
2021/03/16 11:29:56;;;;;;;7.57;6.80;;;;;;;;;;6318462;22;20478;-93
2021/03/16 11:32:22;;;;;;;7.30;5.83;;;;;;;;;;6316374;22;20450;-93
2021/03/16 11:34:52;;;;;;;7.23;6.27;;;;;;;;;;6320306;22;20412;-96
2021/03/16 11:37:20;;;;;;;6.60;6.00;;;;;;;;;;6319210;22;20407;-94
2021/03/16 11:39:46;;;;;;;6.90;5.80;;;;;;;;;;6317778;22;20404;-92
2021/03/16 11:42:36;;;;;;;7.47;6.20;;;;;;;;;;6324034;22;20417;-96
2021/03/16 11:45:05;;;;;;;7.70;6.13;;;;;;;;;;6312751;22;20412;-95
2021/03/16 11:47:31;;;;;;;6.87;6.23;;;;;;;;;;6323109;22;20404;-93
2021/03/16 11:49:57;;;;;;;6.33;5.60;;;;;;;;;;6319030;22;20736;-94
2021/03/16 11:52:31;;;;;;;7.20;6.40;;;;;;;;;;6322084;22;20438;-96
2021/03/16 11:54:57;;;;;;;6.77;6.10;;;;;;;;;;6297304;22;20408;-96
2021/03/16 11:57:23;;;;;;;7.30;6.57;;;;;;;;;;6328711;22;20382;-95
2021/03/16 11:59:51;;;;;;;7.53;6.30;;;;;;;;;;6320379;22;20400;-96
2021/03/16 12:02:45;;;;;;;6.23;5.63;;;;;;;;;;6327533;22;20429;-96
2021/03/16 12:08:14;;;;;;;7.67;5.93;;;;;;;;;;6326997;22;20908;-96
2021/03/16 12:10:40;;;;;;;6.90;6.20;;;;;;;;;;6321511;22;20480;-94
2021/03/16 12:13:06;;;;;;;6.77;6.10;;;;;;;;;;6323590;22;20456;-93
2021/03/16 12:15:32;;;;;;;11.73;9.80;;;;;;;;;;6325357;22;20454;-96
2021/03/16 12:17:58;;;;;;;7.20;6.50;;;;;;;;;;6325854;22;20416;-95
2021/03/16 12:20:26;;;;;;;6.83;5.83;;;;;;;;;;6325151;22;20418;-94
2021/03/16 12:22:52;;;;;;;7.87;7.07;;;;;;;;;;6329794;22;20468;-96
2021/03/16 12:25:22;;;;;;;11.23;8.63;;;;;;;;;;6322306;22;20404;-95
2021/03/16 12:27:48;;;;;;;8.33;7.20;;;;;;;;;;6327277;22;20380;-96
2021/03/16 12:30:15;;;;;;;15.63;11.00;;;;;;;;;;6324490;22;20419;-94
2021/03/16 12:32:41;;;;;;;7.67;6.77;;;;;;;;;;6295719;22;20443;-93
2021/03/16 12:35:09;;;;;;;7.87;6.30;;;;;;;;;;6321098;22;20420;-93
2021/03/16 12:37:35;;;;;;;6.30;5.80;;;;;;;;;;6320817;22;20414;-93
2021/03/16 12:40:03;;;;;;;7.70;6.97;;;;;;;;;;6323526;22;20396;-91
2021/03/16 12:42:30;;;;;;;8.07;7.00;;;;;;;;;;6323435;22;20489;-95
2021/03/16 12:44:56;;;;;;;13.60;9.00;;;;;;;;;;6327852;22;20404;-96
2021/03/16 12:47:23;;;;;;;8.63;7.73;;;;;;;;;;6320764;22;20419;-94
2021/03/16 12:49:49;;;;;;;13.20;9.63;;;;;;;;;;6329265;22;20414;-94
2021/03/16 12:52:16;;;;;;;8.33;7.50;;;;;;;;;;6325937;22;20473;-95
2021/03/16 12:54:47;;;;;;;9.40;8.17;;;;;;;;;;6326954;22;20411;-96
2021/03/16 12:57:18;;;;;;;15.47;10.20;;;;;;;;;;6319803;22;20476;-95
2021/03/16 12:59:51;;;;;;;9.77;8.77;;;;;;;;;;6327100;22;20407;-94
2021/03/16 13:02:17;;;;;;;12.30;9.33;;;;;;;;;;6323038;22;20411;-96
2021/03/16 13:04:46;;;;;;;15.35;11.75;;;;;;;;;;6324299;22;20473;-96
2021/03/16 13:07:13;;;;;;;9.33;7.87;;;;;;;;;;6320778;22;20170;-93
2021/03/16 13:09:45;;;;;;;10.47;9.30;;;;;;;;;;6332869;22;20393;-96
2021/03/16 13:12:13;;;;;;;9.57;8.40;;;;;;;;;;6325108;22;20534;-96
2021/03/16 13:14:57;;;;;;;10.10;8.90;;;;;;;;;;6332223;22;20407;-92
2021/03/16 13:17:23;;;;;;;9.23;8.23;;;;;;;;;;6292133;22;20416;-93
2021/03/16 13:19:49;;;;;;;8.63;6.83;;;;;;;;;;6325111;22;20417;-95
2021/03/16 13:22:15;;;;;;;9.70;8.20;;;;;;;;;;6299945;22;20476;-94
2021/03/16 13:24:41;;;;;;;7.33;6.00;;;;;;;;;;6321699;22;20403;-94
2021/03/16 13:27:25;;;;;;;9.03;7.70;;;;;;;;;;6324331;22;20489;-96
2021/03/16 13:29:52;;;;;;;9.57;8.48;;;;;;;;;;6324606;22;20434;-95
2021/03/16 13:32:19;;;;;;;8.27;7.40;;;;;;;;;;6321412;22;20249;-93
2021/03/16 13:34:45;;;;;;;7.70;6.87;;;;;;;;;;6322005;22;20415;-95
2021/03/16 13:37:12;;;;;;;8.00;7.20;;;;;;;;;;6295433;22;21002;-94
2021/03/16 13:39:47;;;;;;;8.50;6.73;;;;;;;;;;6328809;22;20406;-95
2021/03/16 13:42:13;;;;;;;8.90;8.10;;;;;;;;;;6328713;22;20411;-95
2021/03/16 13:44:39;;;;;;;8.50;7.13;;;;;;;;;;6325622;22;20388;-93
2021/03/16 13:47:08;;;;;;;10.77;7.97;;;;;;;;;;6322939;22;20446;-96
2021/03/16 13:49:36;;;;;;;8.40;7.60;;;;;;;;;;6319134;22;20442;-94
2021/03/16 13:52:08;;;;;;;8.83;7.93;;;;;;;;;;6327730;22;20487;-96
2021/03/16 13:57:16;;;;;;;9.10;7.63;;;;;;;;;;6357840;22;20435;-96
2021/03/16 13:59:42;;;;;;;10.57;7.70;;;;;;;;;;6326013;22;20232;-96
2021/03/16 14:02:09;;;;;;;11.03;7.83;;;;;;;;;;6353517;22;20427;-96
2021/03/16 14:04:36;;;;;;;7.25;6.55;;;;;;;;;;6355059;22;20433;-96
2021/03/16 14:07:03;;;;;;;6.57;5.97;;;;;;;;;;6326107;22;20178;-96
2021/03/16 14:09:29;;;;;;;9.80;7.03;;;;;;;;;;6354251;22;20402;-96
2021/03/16 14:11:55;;;;;;;7.70;6.63;;;;;;;;;;6353388;22;20401;-93
2021/03/16 14:14:21;;;;;;;8.20;7.40;;;;;;;;;;6357537;22;20390;-93
2021/03/16 14:16:50;;;;;;;6.90;6.20;;;;;;;;;;6356443;22;20406;-96
2021/03/16 14:19:19;;;;;;;6.67;5.80;;;;;;;;;;6351518;22;20472;-96
2021/03/16 14:21:48;;;;;;;11.00;9.90;;;;;;;;;;6352897;22;20414;-96
2021/03/16 14:24:14;;;;;;;7.90;6.13;;;;;;;;;;6354268;22;20410;-96
2021/03/16 14:26:40;;;;;;;7.00;6.30;;;;;;;;;;6357411;22;20163;-95
2021/03/16 14:29:23;;;;;;;6.80;6.03;;;;;;;;;;6358741;22;20414;-96
2021/03/16 14:31:49;;;;;;;6.50;5.90;;;;;;;;;;6359716;22;20395;-95
2021/03/16 14:34:23;;;;;;;7.83;7.10;;;;;;;;;;6360828;22;20408;-96
2021/03/16 14:36:50;;;;;;;7.95;7.15;;;;;;;;;;6332782;22;20410;-96
2021/03/16 14:39:16;;;;;;;8.93;7.20;;;;;;;;;;6355907;22;20182;-91
2021/03/16 14:41:43;;;;;;;7.40;6.30;;;;;;;;;;6357042;22;20497;-96
2021/03/16 14:44:11;;;;;;;9.30;8.05;;;;;;;;;;6327476;22;20437;-96
2021/03/16 14:46:37;;;;;;;9.10;6.27;;;;;;;;;;6352005;22;20179;-95
2021/03/16 14:49:03;;;;;;;7.23;6.60;;;;;;;;;;6355559;22;20410;-96
2021/03/16 14:51:34;;;;;;;7.80;5.97;;;;;;;;;;6359572;22;20400;-96
2021/03/16 14:54:03;;;;;;;8.50;6.38;;;;;;;;;;6331242;22;20444;-96